createdAt,value
2018-02-06T00:01:10.000Z,100811
2018-02-06T00:02:26.000Z,100804
2018-02-06T00:03:26.000Z,100810
2018-02-06T00:04:26.000Z,100809
2018-02-06T00:06:26.000Z,100808
2018-02-06T00:08:26.000Z,100819
2018-02-06T00:09:26.000Z,100814
2018-02-06T00:11:26.000Z,100816
2018-02-06T00:13:26.000Z,100815
2018-02-06T00:15:10.000Z,100812
2018-02-06T00:16:26.000Z,100809
2018-02-06T00:17:26.000Z,100814
2018-02-06T00:18:26.000Z,100808
2018-02-06T00:20:26.000Z,100802
2018-02-06T00:22:26.000Z,100797
2018-02-06T00:23:26.000Z,100796
2018-02-06T00:25:26.000Z,100792
2018-02-06T00:27:26.000Z,100789
2018-02-06T00:29:26.000Z,100790
2018-02-06T00:31:26.000Z,100791
2018-02-06T00:32:26.000Z,100790
2018-02-06T00:34:10.000Z,100786
2018-02-06T00:35:26.000Z,100784
2018-02-06T00:36:26.000Z,100779
2018-02-06T00:38:26.000Z,100777
2018-02-06T00:39:26.000Z,100774
2018-02-06T00:41:26.000Z,100771
2018-02-06T00:43:26.000Z,100761
2018-02-06T00:45:26.000Z,100760
2018-02-06T00:47:10.000Z,100753
2018-02-06T00:48:26.000Z,100743
2018-02-06T00:49:26.000Z,100749
2018-02-06T00:51:26.000Z,100746
2018-02-06T00:52:26.000Z,100743
2018-02-06T00:54:26.000Z,100740
2018-02-06T00:56:26.000Z,100735
2018-02-06T00:57:26.000Z,100730
2018-02-06T00:58:26.000Z,100725
2018-02-06T01:00:26.000Z,100726
2018-02-06T01:02:26.000Z,100717
2018-02-06T01:03:26.000Z,100716
2018-02-06T01:05:26.000Z,100720
2018-02-06T01:07:26.000Z,100717
2018-02-06T01:09:26.000Z,100712
2018-02-06T01:10:26.000Z,100711
2018-02-06T01:12:26.000Z,100704
2018-02-06T01:14:26.000Z,100701
2018-02-06T01:15:26.000Z,100702
2018-02-06T01:17:26.000Z,100695
2018-02-06T01:19:26.000Z,100689
2018-02-06T01:20:26.000Z,100689
2018-02-06T01:22:26.000Z,100694
2018-02-06T01:24:11.000Z,100692
2018-02-06T01:25:26.000Z,100690
2018-02-06T01:27:26.000Z,100695
2018-02-06T01:28:26.000Z,100690
2018-02-06T01:30:26.000Z,100689
2018-02-06T01:32:26.000Z,100678
2018-02-06T01:34:26.000Z,100681
2018-02-06T01:36:26.000Z,100678
2018-02-06T01:38:26.000Z,100675
2018-02-06T01:39:26.000Z,100671
2018-02-06T01:41:26.000Z,100661
2018-02-06T01:42:26.000Z,100665
2018-02-06T01:44:26.000Z,100654
2018-02-06T01:46:11.000Z,100659
2018-02-06T01:47:26.000Z,100651
2018-02-06T01:49:26.000Z,100650
2018-02-06T01:51:11.000Z,100646
2018-02-06T01:52:26.000Z,100644
2018-02-06T01:54:26.000Z,100642
2018-02-06T01:55:26.000Z,100643
2018-02-06T01:57:26.000Z,100646
2018-02-06T01:59:11.000Z,100639
2018-02-06T02:00:26.000Z,100639
2018-02-06T02:01:56.000Z,100630
2018-02-06T02:03:26.000Z,100628
2018-02-06T02:04:26.000Z,100631
2018-02-06T02:06:26.000Z,100625
2018-02-06T02:08:11.000Z,100624
2018-02-06T02:09:26.000Z,100619
2018-02-06T02:11:26.000Z,100619
2018-02-06T02:12:26.000Z,100618
2018-02-06T02:14:26.000Z,100612
2018-02-06T02:16:11.000Z,100615
2018-02-06T02:17:26.000Z,100618
2018-02-06T02:18:26.000Z,100613
2018-02-06T02:20:26.000Z,100610
2018-02-06T02:22:11.000Z,100605
2018-02-06T02:23:26.000Z,100603
2018-02-06T02:25:26.000Z,100598
2018-02-06T02:26:26.000Z,100599
2018-02-06T02:27:26.000Z,100595
2018-02-06T02:29:26.000Z,100600
2018-02-06T02:31:26.000Z,100589
2018-02-06T02:32:26.000Z,100588
2018-02-06T02:34:26.000Z,100586
2018-02-06T02:35:26.000Z,100585
2018-02-06T02:37:26.000Z,100576
2018-02-06T02:38:26.000Z,100575
2018-02-06T02:40:26.000Z,100574
2018-02-06T02:41:26.000Z,100577
2018-02-06T04:40:13.000Z,100483
2018-02-06T04:42:13.000Z,100479
2018-02-06T04:44:13.000Z,100480
2018-02-06T04:46:13.000Z,100482
2018-02-06T04:47:13.000Z,100473
2018-02-06T04:49:13.000Z,100475
2018-02-06T04:51:13.000Z,100474
2018-02-06T04:52:13.000Z,100477
2018-02-06T04:53:58.000Z,100472
2018-02-06T04:55:13.000Z,100477
2018-02-06T04:57:13.000Z,100484
2018-02-06T04:59:13.000Z,100484
2018-02-06T05:01:13.000Z,100479
2018-02-06T05:03:13.000Z,100481
2018-02-06T05:05:13.000Z,100469
2018-02-06T05:07:12.000Z,100473
2018-02-06T05:08:12.000Z,100465
2018-02-06T05:10:12.000Z,100463
2018-02-06T05:11:57.000Z,100463
2018-02-06T05:13:12.000Z,100464
2018-02-06T05:14:12.000Z,100462
2018-02-06T05:15:57.000Z,100465
2018-02-06T05:17:12.000Z,100465
2018-02-06T05:19:12.000Z,100467
2018-02-06T05:20:57.000Z,100462
2018-02-06T05:22:12.000Z,100458
2018-02-06T05:24:12.000Z,100455
2018-02-06T05:26:12.000Z,100456
2018-02-06T05:28:12.000Z,100453
2018-02-06T05:29:42.000Z,100458
2018-02-06T05:31:12.000Z,100449
2018-02-06T05:33:12.000Z,100454
2018-02-06T05:34:12.000Z,100450
2018-02-06T05:36:12.000Z,100449
2018-02-06T05:37:12.000Z,100445
2018-02-06T05:38:57.000Z,100445
2018-02-06T05:40:12.000Z,100445
2018-02-06T05:41:12.000Z,100440
2018-02-06T05:43:12.000Z,100435
2018-02-06T05:45:12.000Z,100430
2018-02-06T05:46:12.000Z,100432
2018-02-06T05:48:12.000Z,100433
2018-02-06T05:50:12.000Z,100426
2018-02-06T05:51:12.000Z,100431
2018-02-06T05:52:12.000Z,100428
2018-02-06T05:53:57.000Z,100420
2018-02-06T05:55:12.000Z,100423
2018-02-06T05:56:57.000Z,100413
2018-02-06T05:58:12.000Z,100412
2018-02-06T06:00:12.000Z,100403
2018-02-06T06:01:12.000Z,100405
2018-02-06T06:03:12.000Z,100404
2018-02-06T06:04:57.000Z,100402
2018-02-06T06:06:12.000Z,100400
2018-02-06T06:08:12.000Z,100393
2018-02-06T06:09:12.000Z,100392
2018-02-06T06:11:13.000Z,100398
2018-02-06T06:13:13.000Z,100394
2018-02-06T06:15:13.000Z,100394
2018-02-06T06:17:13.000Z,100387
2018-02-06T06:18:13.000Z,100389
2018-02-06T06:20:13.000Z,100384
2018-02-06T06:22:13.000Z,100379
2018-02-06T06:23:13.000Z,100376
2018-02-06T06:25:13.000Z,100373
2018-02-06T06:26:13.000Z,100369
2018-02-06T06:28:13.000Z,100369
2018-02-06T06:30:13.000Z,100373
2018-02-06T06:31:13.000Z,100371
2018-02-06T06:33:13.000Z,100365
2018-02-06T06:35:13.000Z,100364
2018-02-06T06:36:13.000Z,100368
2018-02-06T06:37:42.000Z,100371
2018-02-06T06:39:13.000Z,100365
2018-02-06T06:40:13.000Z,100362
2018-02-06T06:41:13.000Z,100362
2018-02-06T06:43:13.000Z,100364
2018-02-06T06:44:57.000Z,100362
2018-02-06T06:46:13.000Z,100362
2018-02-06T06:48:13.000Z,100356
2018-02-06T06:49:13.000Z,100358
2018-02-06T06:51:13.000Z,100354
2018-02-06T06:52:57.000Z,100356
2018-02-06T06:54:13.000Z,100352
2018-02-06T06:56:13.000Z,100356
2018-02-06T06:58:13.000Z,100353
2018-02-06T07:00:13.000Z,100348
2018-02-06T07:02:13.000Z,100350
2018-02-06T07:04:13.000Z,100355
2018-02-06T07:06:13.000Z,100358
2018-02-06T07:07:13.000Z,100352
2018-02-06T07:08:57.000Z,100355
2018-02-06T07:10:13.000Z,100355
2018-02-06T07:11:57.000Z,100352
2018-02-06T07:12:57.000Z,100351
2018-02-06T07:14:13.000Z,100350
2018-02-06T07:15:13.000Z,100355
2018-02-06T07:17:13.000Z,100356
2018-02-06T07:18:58.000Z,100352
2018-02-06T07:20:13.000Z,100347
2018-02-06T07:21:58.000Z,100349
2018-02-06T07:23:13.000Z,100355
2018-02-06T07:25:13.000Z,100355
2018-02-06T07:26:13.000Z,100347
2018-02-06T07:28:13.000Z,100339
2018-02-06T07:30:13.000Z,100342
2018-02-06T07:31:13.000Z,100345
2018-02-06T07:32:13.000Z,100347
2018-02-06T07:34:13.000Z,100335
2018-02-06T07:36:13.000Z,100346
2018-02-06T07:38:13.000Z,100335
2018-02-06T07:40:13.000Z,100335
2018-02-06T07:42:13.000Z,100336
2018-02-06T07:44:13.000Z,100336
2018-02-06T07:46:13.000Z,100329
2018-02-06T07:47:42.000Z,100333
2018-02-06T07:49:13.000Z,100337
2018-02-06T07:51:13.000Z,100339
2018-02-06T07:53:13.000Z,100336
2018-02-06T07:55:13.000Z,100332
2018-02-06T07:56:13.000Z,100330
2018-02-06T07:58:13.000Z,100328
2018-02-06T08:00:13.000Z,100329
2018-02-06T08:02:13.000Z,100334
2018-02-06T08:03:13.000Z,100334
2018-02-06T08:04:58.000Z,100333
2018-02-06T08:06:13.000Z,100333
2018-02-06T08:07:13.000Z,100335
2018-02-06T08:08:13.000Z,100336
2018-02-06T08:09:58.000Z,100332
2018-02-06T08:11:13.000Z,100332
2018-02-06T08:13:13.000Z,100333
2018-02-06T08:14:58.000Z,100330
2018-02-06T08:16:13.000Z,100328
2018-02-06T08:18:13.000Z,100325
2018-02-06T08:19:57.000Z,100327
2018-02-06T08:21:13.000Z,100325
2018-02-06T08:23:13.000Z,100318
2018-02-06T08:25:13.000Z,100319
2018-02-06T08:26:13.000Z,100310
2018-02-06T08:28:13.000Z,100310
2018-02-06T08:29:13.000Z,100312
2018-02-06T08:31:13.000Z,100307
2018-02-06T08:32:13.000Z,100304
2018-02-06T08:34:13.000Z,100304
2018-02-06T08:35:13.000Z,100301
2018-02-06T08:37:13.000Z,100305
2018-02-06T08:39:13.000Z,100304
2018-02-06T08:40:57.000Z,100304
2018-02-06T08:42:13.000Z,100299
2018-02-06T08:43:13.000Z,100301
2018-02-06T08:45:13.000Z,100293
2018-02-06T08:46:57.000Z,100285
2018-02-06T08:48:13.000Z,100289
2018-02-06T08:50:13.000Z,100286
2018-02-06T08:51:13.000Z,100289
2018-02-06T08:53:13.000Z,100294
2018-02-06T08:55:13.000Z,100283
2018-02-06T08:57:13.000Z,100281
2018-02-06T08:59:13.000Z,100274
2018-02-06T09:00:42.000Z,100281
2018-02-06T09:02:13.000Z,100282
2018-02-06T09:04:13.000Z,100278
2018-02-06T09:06:13.000Z,100280
2018-02-06T09:07:13.000Z,100287
2018-02-06T09:08:42.000Z,100284
2018-02-06T09:10:13.000Z,100283
2018-02-06T09:12:13.000Z,100278
2018-02-06T09:14:13.000Z,100286
2018-02-06T09:16:13.000Z,100290
2018-02-06T09:17:13.000Z,100287
2018-02-06T09:19:13.000Z,100290
2018-02-06T09:21:12.000Z,100276
2018-02-06T09:23:12.000Z,100273
2018-02-06T09:24:12.000Z,100284
2018-02-06T09:25:57.000Z,100277
2018-02-06T09:28:12.000Z,100272
2018-02-06T09:30:12.000Z,100262
2018-02-06T09:32:12.000Z,100269
2018-02-06T09:34:12.000Z,100257
2018-02-06T09:35:12.000Z,100255
2018-02-06T09:37:12.000Z,100250
2018-02-06T09:39:12.000Z,100262
2018-02-06T09:41:12.000Z,100247
2018-02-06T09:42:12.000Z,100243
2018-02-06T09:44:12.000Z,100242
2018-02-06T09:45:12.000Z,100249
2018-02-06T09:46:57.000Z,100243
2018-02-06T09:48:12.000Z,100256
2018-02-06T09:50:12.000Z,100251
2018-02-06T09:51:57.000Z,100252
2018-02-06T09:53:12.000Z,100251
2018-02-06T09:55:12.000Z,100245
2018-02-06T09:56:57.000Z,100238
2018-02-06T09:58:12.000Z,100245
2018-02-06T10:00:12.000Z,100237
2018-02-06T10:02:12.000Z,100236
2018-02-06T10:04:12.000Z,100236
2018-02-06T10:05:57.000Z,100230
2018-02-06T10:07:12.000Z,100235
2018-02-06T10:09:12.000Z,100235
2018-02-06T10:10:57.000Z,100233
2018-02-06T10:12:12.000Z,100235
2018-02-06T10:14:12.000Z,100230
2018-02-06T10:16:12.000Z,100233
2018-02-06T10:18:12.000Z,100228
2018-02-06T10:20:12.000Z,100229
2018-02-06T10:21:12.000Z,100227
2018-02-06T10:23:12.000Z,100230
2018-02-06T10:24:12.000Z,100233
2018-02-06T10:25:12.000Z,100231
2018-02-06T10:26:12.000Z,100227
2018-02-06T10:28:12.000Z,100223
2018-02-06T10:29:12.000Z,100231
2018-02-06T10:30:12.000Z,100226
2018-02-06T10:32:12.000Z,100227
2018-02-06T10:34:12.000Z,100225
2018-02-06T10:35:12.000Z,100227
2018-02-06T10:37:12.000Z,100226
2018-02-06T10:39:12.000Z,100221
2018-02-06T10:41:12.000Z,100220
2018-02-06T10:43:12.000Z,100218
2018-02-06T10:45:12.000Z,100215
2018-02-06T10:46:12.000Z,100224
2018-02-06T10:47:12.000Z,100217
2018-02-06T10:49:12.000Z,100216
2018-02-06T10:50:12.000Z,100211
2018-02-06T10:52:12.000Z,100207
2018-02-06T10:53:57.000Z,100209
2018-02-06T10:55:12.000Z,100208
2018-02-06T10:57:12.000Z,100202
2018-02-06T10:58:57.000Z,100199
2018-02-06T11:00:12.000Z,100203
2018-02-06T11:01:12.000Z,100197
2018-02-06T11:02:12.000Z,100204
2018-02-06T11:04:12.000Z,100192
2018-02-06T11:05:12.000Z,100192
2018-02-06T11:06:12.000Z,100194
2018-02-06T11:08:12.000Z,100196
2018-02-06T11:10:12.000Z,100188
2018-02-06T11:11:12.000Z,100186
2018-02-06T11:13:12.000Z,100182
2018-02-06T11:15:12.000Z,100171
2018-02-06T11:17:12.000Z,100176
2018-02-06T11:19:12.000Z,100168
2018-02-06T11:20:57.000Z,100170
2018-02-06T11:22:12.000Z,100169
2018-02-06T11:23:57.000Z,100171
2018-02-06T11:25:12.000Z,100168
2018-02-06T11:27:12.000Z,100167
2018-02-06T11:29:13.000Z,100165
2018-02-06T11:30:13.000Z,100159
2018-02-06T11:32:13.000Z,100170
2018-02-06T11:34:13.000Z,100163
2018-02-06T11:35:13.000Z,100164
2018-02-06T11:37:13.000Z,100165
2018-02-06T11:38:13.000Z,100158
2018-02-06T11:39:58.000Z,100158
2018-02-06T11:41:13.000Z,100151
2018-02-06T11:43:13.000Z,100158
2018-02-06T11:44:13.000Z,100151
2018-02-06T11:46:13.000Z,100151
2018-02-06T11:47:58.000Z,100145
2018-02-06T11:48:58.000Z,100147
2018-02-06T11:50:13.000Z,100145
2018-02-06T11:51:42.000Z,100148
2018-02-06T11:53:13.000Z,100148
2018-02-06T11:54:13.000Z,100145
2018-02-06T11:56:13.000Z,100144
2018-02-06T11:58:13.000Z,100150
2018-02-06T11:59:13.000Z,100140
2018-02-06T12:00:13.000Z,100139
2018-02-06T12:02:13.000Z,100130
2018-02-06T12:03:58.000Z,100135
2018-02-06T12:05:13.000Z,100139
2018-02-06T12:07:13.000Z,100119
2018-02-06T12:09:13.000Z,100113
2018-02-06T12:10:58.000Z,100108
2018-02-06T12:12:13.000Z,100108
2018-02-06T12:14:13.000Z,100108
2018-02-06T12:15:58.000Z,100104
2018-02-06T12:19:34.000Z,100103
2018-02-06T12:21:05.000Z,100111
2018-02-06T12:22:20.000Z,100104
2018-02-06T12:24:20.000Z,100103
2018-02-06T12:25:20.000Z,100103
2018-02-06T12:27:20.000Z,100105
2018-02-06T12:29:20.000Z,100100
2018-02-06T12:30:21.000Z,100099
2018-02-06T12:32:20.000Z,100097
2018-02-06T12:34:05.000Z,100107
2018-02-06T12:35:20.000Z,100097
2018-02-06T12:37:05.000Z,100089
2018-02-06T12:38:20.000Z,100089
2018-02-06T12:40:20.000Z,100092
2018-02-06T12:42:05.000Z,100089
2018-02-06T12:43:20.000Z,100089
2018-02-06T12:45:20.000Z,100092
2018-02-06T12:47:20.000Z,100088
2018-02-06T12:49:05.000Z,100079
2018-02-06T12:50:20.000Z,100084
2018-02-06T12:51:20.000Z,100083
2018-02-06T12:52:20.000Z,100085
2018-02-06T12:54:20.000Z,100077
2018-02-06T12:56:20.000Z,100082
2018-02-06T12:58:20.000Z,100081
2018-02-06T13:00:20.000Z,100078
2018-02-06T13:01:20.000Z,100079
2018-02-06T13:03:20.000Z,100061
2018-02-06T13:04:20.000Z,100055
2018-02-06T13:06:08.000Z,100049
2018-02-06T13:08:08.000Z,100059
2018-02-06T13:10:08.000Z,100047
2018-02-06T13:12:08.000Z,100053
2018-02-06T13:14:08.000Z,100052
2018-02-06T13:16:08.000Z,100047
2018-02-06T13:18:08.000Z,100052
2018-02-06T13:20:08.000Z,100044
2018-02-06T13:22:08.000Z,100048
2018-02-06T13:24:08.000Z,100050
2018-02-06T13:25:08.000Z,100043
2018-02-06T13:27:08.000Z,100053
2018-02-06T13:28:08.000Z,100053
2018-02-06T13:30:08.000Z,100055
2018-02-06T13:32:08.000Z,100046
2018-02-06T13:33:08.000Z,100052
2018-02-06T13:34:08.000Z,100051
2018-02-06T13:36:08.000Z,100040
2018-02-06T13:37:53.000Z,100046
2018-02-06T13:39:08.000Z,100043
2018-02-06T13:40:08.000Z,100039
2018-02-06T13:41:08.000Z,100036
2018-02-06T13:43:08.000Z,100035
2018-02-06T13:44:08.000Z,100027
2018-02-06T13:46:08.000Z,100023
2018-02-06T13:48:08.000Z,100023
2018-02-06T13:50:08.000Z,100025
2018-02-06T13:51:08.000Z,100024
2018-02-06T13:52:53.000Z,100028
2018-02-06T13:54:08.000Z,100029
2018-02-06T13:56:08.000Z,100021
2018-02-06T13:58:08.000Z,100017
2018-02-06T14:00:08.000Z,100024
2018-02-06T14:01:08.000Z,100022
2018-02-06T14:03:08.000Z,100024
2018-02-06T14:05:08.000Z,100027
2018-02-06T14:06:08.000Z,100030
2018-02-06T14:08:08.000Z,100032
2018-02-06T14:09:08.000Z,100026
2018-02-06T14:10:52.000Z,100025
2018-02-06T14:12:07.000Z,100024
2018-02-06T14:13:07.000Z,100018
2018-02-06T14:15:07.000Z,100008
2018-02-06T14:16:07.000Z,100008
2018-02-06T14:17:52.000Z,100007
2018-02-06T14:19:07.000Z,100000
2018-02-06T14:20:52.000Z,99993
2018-02-06T14:22:07.000Z,99999
2018-02-06T14:23:07.000Z,99996
2018-02-06T14:25:07.000Z,99989
2018-02-06T14:26:07.000Z,99991
2018-02-06T14:28:07.000Z,99985
2018-02-06T14:30:07.000Z,100001
2018-02-06T14:31:07.000Z,99997
2018-02-06T14:33:07.000Z,100001
2018-02-06T14:34:07.000Z,99997
2018-02-06T14:35:52.000Z,100001
2018-02-06T14:37:07.000Z,100002
2018-02-06T14:38:07.000Z,100003
2018-02-06T14:40:07.000Z,100006
2018-02-06T14:41:07.000Z,100004
2018-02-06T14:42:07.000Z,100005
2018-02-06T14:44:07.000Z,100000
2018-02-06T14:45:52.000Z,100003
2018-02-06T14:47:07.000Z,100005
2018-02-06T14:49:07.000Z,100005
2018-02-06T14:50:07.000Z,99998
2018-02-06T14:52:07.000Z,99999
2018-02-06T14:53:07.000Z,100003
2018-02-06T14:55:07.000Z,99997
2018-02-06T14:57:07.000Z,99991
2018-02-06T14:59:07.000Z,99986
2018-02-06T15:01:07.000Z,99984
2018-02-06T15:02:52.000Z,99985
2018-02-06T15:05:07.000Z,99985
2018-02-06T15:06:52.000Z,99987
2018-02-06T15:08:07.000Z,99988
2018-02-06T15:10:07.000Z,99987
2018-02-06T15:11:07.000Z,99990
2018-02-06T15:12:07.000Z,99991
2018-02-06T15:13:37.000Z,99989
2018-02-06T15:15:07.000Z,99987
2018-02-06T15:17:08.000Z,99989
2018-02-06T15:19:08.000Z,99987
2018-02-06T15:21:07.000Z,99984
2018-02-06T15:22:08.000Z,99981
2018-02-06T15:24:07.000Z,99986
2018-02-06T15:25:08.000Z,99984
2018-02-06T15:27:07.000Z,99980
2018-02-06T15:28:08.000Z,99979
2018-02-06T15:30:08.000Z,99982
2018-02-06T15:32:08.000Z,99981
2018-02-06T15:34:07.000Z,99983
2018-02-06T15:35:08.000Z,99977
2018-02-06T15:37:08.000Z,99978
2018-02-06T15:38:37.000Z,99990
2018-02-06T15:40:08.000Z,99972
2018-02-06T15:41:08.000Z,99976
2018-02-06T15:43:08.000Z,99979
2018-02-06T15:45:08.000Z,99977
2018-02-06T15:47:08.000Z,99980
2018-02-06T15:49:08.000Z,99983
2018-02-06T15:51:08.000Z,99981
2018-02-06T15:53:08.000Z,99974
2018-02-06T15:55:08.000Z,99973
2018-02-06T15:56:08.000Z,99981
2018-02-06T15:57:08.000Z,99978
2018-02-06T15:59:07.000Z,99985
2018-02-06T16:01:08.000Z,99982
2018-02-06T16:02:52.000Z,99989
2018-02-06T16:04:08.000Z,99990
2018-02-06T16:05:37.000Z,99986
2018-02-06T16:07:08.000Z,99979
2018-02-06T16:08:52.000Z,99988
2018-02-06T16:10:08.000Z,99977
2018-02-06T16:11:52.000Z,99981
2018-02-06T16:13:08.000Z,99984
2018-02-06T16:14:08.000Z,99990
2018-02-06T16:16:08.000Z,99984
2018-02-06T16:17:07.000Z,99984
2018-02-06T16:19:07.000Z,99986
2018-02-06T16:20:07.000Z,99983
2018-02-06T16:21:52.000Z,99974
2018-02-06T16:23:08.000Z,99975
2018-02-06T16:25:07.000Z,99985
2018-02-06T16:26:52.000Z,99984
2018-02-06T16:27:52.000Z,99984
2018-02-06T16:29:08.000Z,99979
2018-02-06T16:31:07.000Z,99982
2018-02-06T16:32:08.000Z,100000
2018-02-06T16:34:08.000Z,99987
2018-02-06T16:36:08.000Z,99979
2018-02-06T16:38:08.000Z,99981
2018-02-06T16:40:08.000Z,99991
2018-02-06T16:42:07.000Z,99985
2018-02-06T16:43:07.000Z,99986
2018-02-06T16:45:08.000Z,99983
2018-02-06T16:47:07.000Z,99985
2018-02-06T16:48:07.000Z,99985
2018-02-06T16:50:07.000Z,99988
2018-02-06T16:51:08.000Z,99991
2018-02-06T16:52:08.000Z,99992
2018-02-06T16:54:08.000Z,99991
2018-02-06T16:56:08.000Z,99995
2018-02-06T16:58:07.000Z,99992
2018-02-06T16:59:08.000Z,99990
2018-02-06T17:01:07.000Z,99990
2018-02-06T17:03:07.000Z,99990
2018-02-06T17:04:08.000Z,99990
2018-02-06T17:05:52.000Z,99987
2018-02-06T17:07:07.000Z,99987
2018-02-06T17:09:08.000Z,99992
2018-02-06T17:11:07.000Z,99988
2018-02-06T17:12:08.000Z,99993
2018-02-06T17:13:52.000Z,99994
2018-02-06T17:15:08.000Z,99991
2018-02-06T17:17:08.000Z,99994
2018-02-06T17:19:07.000Z,99994
2018-02-06T17:21:08.000Z,99992
2018-02-06T17:23:08.000Z,99988
2018-02-06T17:25:08.000Z,99995
2018-02-06T17:27:08.000Z,99991
2018-02-06T17:29:08.000Z,99998
2018-02-06T17:30:08.000Z,99993
2018-02-06T17:32:08.000Z,99997
2018-02-06T17:33:08.000Z,99998
2018-02-06T17:35:08.000Z,100001
2018-02-06T17:37:08.000Z,99998
2018-02-06T17:39:08.000Z,99999
2018-02-06T17:41:08.000Z,100001
2018-02-06T17:42:08.000Z,100000
2018-02-06T17:44:08.000Z,100002
2018-02-06T17:45:08.000Z,100003
2018-02-06T17:47:08.000Z,99999
2018-02-06T17:48:08.000Z,99986
2018-02-06T17:50:08.000Z,99998
2018-02-06T17:52:08.000Z,99995
2018-02-06T17:54:08.000Z,99998
2018-02-06T17:56:08.000Z,100002
2018-02-06T17:57:08.000Z,99992
2018-02-06T17:58:08.000Z,99989
2018-02-06T17:59:08.000Z,99996
2018-02-06T18:01:08.000Z,99984
2018-02-06T18:02:08.000Z,99990
2018-02-06T18:03:08.000Z,99989
2018-02-06T18:05:08.000Z,99989
2018-02-06T18:06:08.000Z,99982
2018-02-06T18:08:08.000Z,99981
2018-02-06T18:09:08.000Z,99981
2018-02-06T18:11:08.000Z,99977
2018-02-06T18:13:08.000Z,99984
2018-02-06T18:15:08.000Z,99977
2018-02-06T18:16:08.000Z,99978
2018-02-06T18:18:08.000Z,99983
2018-02-06T18:20:08.000Z,99981
2018-02-06T18:21:08.000Z,99993
2018-02-06T18:22:53.000Z,99995
2018-02-06T18:24:08.000Z,99990
2018-02-06T18:26:08.000Z,99993
2018-02-06T18:28:08.000Z,99999
2018-02-06T18:30:08.000Z,99999
2018-02-06T18:32:08.000Z,99994
2018-02-06T18:33:08.000Z,100000
2018-02-06T18:34:38.000Z,99997
2018-02-06T18:36:08.000Z,100000
2018-02-06T18:37:08.000Z,99997
2018-02-06T18:39:08.000Z,100005
2018-02-06T18:41:08.000Z,100001
2018-02-06T18:42:08.000Z,100004
2018-02-06T18:44:08.000Z,99999
2018-02-06T18:46:08.000Z,99998
2018-02-06T18:48:08.000Z,99999
2018-02-06T18:49:08.000Z,99994
2018-02-06T18:51:08.000Z,100002
2018-02-06T18:53:08.000Z,100005
2018-02-06T18:54:08.000Z,100007
2018-02-06T18:56:08.000Z,100014
2018-02-06T18:58:08.000Z,100016
2018-02-06T18:59:53.000Z,100015
2018-02-06T19:01:08.000Z,100016
2018-02-06T19:02:08.000Z,100015
2018-02-06T19:04:08.000Z,100013
2018-02-06T19:06:08.000Z,100013
2018-02-06T19:07:08.000Z,100014
2018-02-06T19:08:53.000Z,100016
2018-02-06T19:10:08.000Z,100015
2018-02-06T19:11:53.000Z,100023
2018-02-06T19:13:08.000Z,100019
2018-02-06T19:15:08.000Z,100019
2018-02-06T19:16:08.000Z,100021
2018-02-06T19:18:08.000Z,100017
2018-02-06T19:19:08.000Z,100013
2018-02-06T19:21:08.000Z,100014
2018-02-06T19:22:08.000Z,100011
2018-02-06T19:24:08.000Z,100017
2018-02-06T19:26:08.000Z,100022
2018-02-06T19:28:08.000Z,100013
2018-02-06T19:29:52.000Z,100018
2018-02-06T19:31:08.000Z,100014
2018-02-06T19:33:08.000Z,100018
2018-02-06T19:34:08.000Z,100011
2018-02-06T19:36:08.000Z,100011
2018-02-06T19:38:08.000Z,100014
2018-02-06T19:40:08.000Z,100015
2018-02-06T19:41:52.000Z,100021
2018-02-06T19:43:08.000Z,100030
2018-02-06T19:44:08.000Z,100024
2018-02-06T19:46:08.000Z,100027
2018-02-06T19:47:08.000Z,100021
2018-02-06T19:48:08.000Z,100023
2018-02-06T19:50:08.000Z,100024
2018-02-06T19:52:08.000Z,100027
2018-02-06T19:53:08.000Z,100023
2018-02-06T19:54:52.000Z,100024
2018-02-06T19:56:08.000Z,100024
2018-02-06T19:57:08.000Z,100024
2018-02-06T19:59:08.000Z,100022
2018-02-06T20:00:52.000Z,100030
2018-02-06T20:02:08.000Z,100030
2018-02-06T20:04:08.000Z,100023
2018-02-06T20:05:08.000Z,100028
2018-02-06T20:07:08.000Z,100021
2018-02-06T20:09:08.000Z,100026
2018-02-06T20:11:08.000Z,100020
2018-02-06T20:13:08.000Z,100016
2018-02-06T20:15:08.000Z,100021
2018-02-06T20:17:08.000Z,100023
2018-02-06T20:18:08.000Z,100026
2018-02-06T20:20:08.000Z,100026
2018-02-06T20:21:08.000Z,100027
2018-02-06T20:22:52.000Z,100031
2018-02-06T20:23:52.000Z,100025
2018-02-06T20:25:08.000Z,100023
2018-02-06T20:27:08.000Z,100025
2018-02-06T20:28:08.000Z,100025
2018-02-06T20:30:08.000Z,100024
2018-02-06T20:31:08.000Z,100023
2018-02-06T20:32:53.000Z,100028
2018-02-06T20:34:08.000Z,100030
2018-02-06T20:36:08.000Z,100029
2018-02-06T20:38:08.000Z,100031
2018-02-06T20:39:37.000Z,100028
2018-02-06T20:41:08.000Z,100036
2018-02-06T20:42:08.000Z,100031
2018-02-06T20:44:08.000Z,100024
2018-02-06T20:45:08.000Z,100022
2018-02-06T20:46:08.000Z,100028
2018-02-06T20:48:08.000Z,100028
2018-02-06T20:50:08.000Z,100026
2018-02-06T20:51:08.000Z,100027
2018-02-06T20:53:08.000Z,100029
2018-02-06T20:54:08.000Z,100028
2018-02-06T20:55:08.000Z,100022
2018-02-06T20:57:08.000Z,100019
2018-02-06T20:59:08.000Z,100024
2018-02-06T21:01:08.000Z,100025
2018-02-06T21:02:08.000Z,100022
2018-02-06T21:03:08.000Z,100025
2018-02-06T21:05:08.000Z,100030
2018-02-06T21:07:08.000Z,100034
2018-02-06T21:08:08.000Z,100030
2018-02-06T21:10:08.000Z,100036
2018-02-06T21:11:08.000Z,100034
2018-02-06T21:13:08.000Z,100039
2018-02-06T21:15:08.000Z,100037
2018-02-06T21:17:08.000Z,100038
2018-02-06T21:19:08.000Z,100039
2018-02-06T21:21:08.000Z,100041
2018-02-06T21:23:08.000Z,100038
2018-02-06T21:25:08.000Z,100035
2018-02-06T21:27:08.000Z,100037
2018-02-06T21:28:37.000Z,100039
2018-02-06T21:30:08.000Z,100042
2018-02-06T21:31:08.000Z,100045
2018-02-06T21:33:08.000Z,100042
2018-02-06T21:34:08.000Z,100046
2018-02-06T21:36:08.000Z,100050
2018-02-06T21:38:08.000Z,100048
2018-02-06T21:40:08.000Z,100049
2018-02-06T21:42:08.000Z,100052
2018-02-06T21:43:08.000Z,100054
2018-02-06T21:45:08.000Z,100053
2018-02-06T21:46:08.000Z,100057
2018-02-06T21:48:08.000Z,100058
2018-02-06T21:50:08.000Z,100051
2018-02-06T21:52:08.000Z,100055
2018-02-06T21:53:08.000Z,100052
2018-02-06T21:55:08.000Z,100052
2018-02-06T21:57:08.000Z,100060
2018-02-06T21:58:08.000Z,100053
2018-02-06T22:00:08.000Z,100060
2018-02-06T22:02:08.000Z,100060
2018-02-06T22:04:08.000Z,100052
2018-02-06T22:06:08.000Z,100052
2018-02-06T22:07:08.000Z,100051
2018-02-06T22:09:08.000Z,100055
2018-02-06T22:11:08.000Z,100055
2018-02-06T22:12:08.000Z,100055
2018-02-06T22:14:08.000Z,100057
2018-02-06T22:15:08.000Z,100056
2018-02-06T22:16:08.000Z,100059